Time;durP1;ratioP1;P1;durP2;ratioP2;P2;SDS_P1;SDS_P2;PMS_P1;PMS_P2;Temp;Humidity;BMP_temperature;BMP_pressure;BME280_temperature;BME280_humidity;BME280_pressure;Samples;Min_cycle;Max_cycle;Signal;HPM_P1;HPM_P2
2023/11/20 00:01:52;;;;;;;5.47;1.23;;;26.00;49.70;;;;;;5032488;28;20029;-65
2023/11/20 00:04:18;;;;;;;4.22;1.42;;;26.00;49.80;;;;;;5030165;28;20033;-65
2023/11/20 00:06:45;;;;;;;6.32;1.30;;;25.90;50.10;;;;;;5032692;28;20108;-65
2023/11/20 00:09:12;;;;;;;5.78;1.33;;;25.80;49.90;;;;;;5033584;28;20120;-65
2023/11/20 00:11:39;;;;;;;7.90;1.42;;;25.80;50.20;;;;;;5032506;28;20034;-66
2023/11/20 00:14:06;;;;;;;5.93;1.23;;;25.70;50.50;;;;;;5032047;28;20022;-64
2023/11/20 00:16:33;;;;;;;3.85;1.27;;;25.60;50.80;;;;;;5032045;28;20021;-64
2023/11/20 00:19:00;;;;;;;8.52;1.85;;;25.50;51.40;;;;;;5032084;28;20430;-66
2023/11/20 00:21:26;;;;;;;6.38;1.45;;;25.50;51.40;;;;;;5032260;28;20025;-65
2023/11/20 00:23:52;;;;;;;8.57;1.95;;;25.40;51.80;;;;;;5032807;28;20033;-65
2023/11/20 00:26:19;;;;;;;6.03;2.22;;;25.30;52.10;;;;;;5033373;28;20592;-59
2023/11/20 00:28:45;;;;;;;12.82;8.63;;;25.30;53.30;;;;;;5032370;28;20033;-62
2023/11/20 00:31:15;;;;;;;9.18;2.35;;;25.20;53.90;;;;;;5032106;28;20029;-60
2023/11/20 00:33:42;;;;;;;6.63;2.50;;;25.10;54.40;;;;;;5033291;28;20035;-61
2023/11/20 00:36:24;;;;;;;;;;;;;;;;;;;;;
2023/11/20 00:38:51;;;;;;;32.10;18.77;;;25.00;55.60;;;;;;5031367;28;20033;-60
2023/11/20 00:41:19;;;;;;;8.70;3.50;;;24.90;55.50;;;;;;5032323;28;20028;-62
2023/11/20 00:43:46;;;;;;;11.07;3.25;;;24.80;55.70;;;;;;5032327;28;20029;-62
2023/11/20 00:46:15;;;;;;;7.30;2.85;;;24.80;56.20;;;;;;5031309;28;20104;-63
2023/11/20 00:48:44;;;;;;;6.57;2.42;;;24.70;56.30;;;;;;5031352;28;20494;-61
2023/11/20 00:51:11;;;;;;;6.10;2.50;;;24.70;56.70;;;;;;5031853;28;20040;-63
2023/11/20 00:53:38;;;;;;;11.07;2.95;;;24.60;56.90;;;;;;5031167;28;20443;-61
2023/11/20 00:56:05;;;;;;;22.08;15.95;;;24.50;57.10;;;;;;5032787;28;20029;-60
2023/11/20 00:58:31;;;;;;;13.75;4.22;;;24.50;57.40;;;;;;5031511;28;20021;-62
2023/11/20 01:00:58;;;;;;;16.42;10.85;;;24.40;56.70;;;;;;5032357;28;20493;-61
2023/11/20 01:03:25;;;;;;;12.80;2.90;;;24.30;56.40;;;;;;5031423;28;20111;-61
2023/11/20 01:05:52;;;;;;;8.20;2.80;;;24.30;56.70;;;;;;5030957;28;20815;-61
2023/11/20 01:08:19;;;;;;;15.38;3.00;;;24.20;56.60;;;;;;5031534;28;20060;-62
2023/11/20 01:10:45;;;;;;;11.35;2.70;;;24.20;56.80;;;;;;5031980;28;20043;-60
2023/11/20 01:13:11;;;;;;;8.75;2.22;;;24.10;57.00;;;;;;5031069;28;20057;-60
2023/11/20 01:15:38;;;;;;;6.32;2.50;;;24.10;57.40;;;;;;5032529;28;20025;-60
2023/11/20 01:18:05;;;;;;;9.52;2.28;;;24.00;58.10;;;;;;5030596;28;20018;-59
2023/11/20 01:20:33;;;;;;;7.50;2.20;;;23.90;57.80;;;;;;5029916;28;20116;-60
2023/11/20 01:22:59;;;;;;;11.98;2.13;;;23.90;58.30;;;;;;5030352;28;20033;-59
2023/11/20 01:25:26;;;;;;;9.68;2.33;;;23.80;58.60;;;;;;5030760;28;20103;-60
2023/11/20 01:27:52;;;;;;;13.63;2.75;;;23.70;58.70;;;;;;5031040;28;20036;-61
2023/11/20 01:30:19;;;;;;;11.43;2.95;;;23.70;59.20;;;;;;5031679;28;20034;-63
2023/11/20 01:32:46;;;;;;;6.57;2.38;;;23.60;59.30;;;;;;5031617;28;20032;-64
2023/11/20 01:35:13;;;;;;;6.35;2.45;;;23.60;59.50;;;;;;5030557;28;20130;-63
2023/11/20 01:37:39;;;;;;;13.05;2.53;;;23.50;59.70;;;;;;5031184;28;20485;-62
2023/11/20 01:40:07;;;;;;;6.57;2.20;;;23.40;60.00;;;;;;5031817;28;20083;-61
2023/11/20 01:42:33;;;;;;;6.03;2.08;;;23.40;60.40;;;;;;5031920;28;20488;-58
2023/11/20 01:45:00;;;;;;;8.45;2.28;;;23.30;60.70;;;;;;5030681;28;20025;-60
2023/11/20 01:47:27;;;;;;;9.18;2.15;;;23.30;61.20;;;;;;5032819;28;20566;-60
2023/11/20 01:49:53;;;;;;;6.90;1.65;;;23.20;61.30;;;;;;5031246;28;20060;-60
2023/11/20 01:52:21;;;;;;;6.65;2.25;;;23.20;61.80;;;;;;5031316;28;20051;-63
2023/11/20 01:54:48;;;;;;;6.05;2.20;;;23.10;62.40;;;;;;5031310;28;20107;-61
2023/11/20 01:57:15;;;;;;;8.95;2.22;;;23.00;62.90;;;;;;5032008;28;20029;-64
2023/11/20 01:59:42;;;;;;;7.85;2.45;;;23.00;62.90;;;;;;5029530;28;20037;-64
2023/11/20 02:02:09;;;;;;;6.68;2.30;;;23.00;63.40;;;;;;5027642;28;20055;-61
2023/11/20 02:04:39;;;;;;;5.60;2.63;;;22.90;63.50;;;;;;5025529;28;20110;-63
2023/11/20 02:07:10;;;;;;;6.65;2.67;;;22.80;63.80;;;;;;5028539;28;20064;-61
2023/11/20 02:09:37;;;;;;;11.18;3.17;;;22.80;63.90;;;;;;5029247;28;20127;-62
2023/11/20 02:12:05;;;;;;;5.70;2.78;;;22.70;64.60;;;;;;5029349;28;20049;-60
2023/11/20 02:14:32;;;;;;;4.65;2.45;;;22.60;64.70;;;;;;5031239;28;20064;-60
2023/11/20 02:16:58;;;;;;;5.50;2.33;;;22.60;65.20;;;;;;5029237;28;20030;-63
2023/11/20 02:19:25;;;;;;;9.48;2.90;;;22.50;65.10;;;;;;5028732;28;20033;-63
2023/11/20 02:21:51;;;;;;;9.65;3.63;;;22.50;65.30;;;;;;5030706;28;20108;-63
2023/11/20 02:24:21;;;;;;;5.97;3.40;;;22.40;66.00;;;;;;5031256;28;20505;-66
2023/11/20 02:26:51;;;;;;;8.18;3.30;;;22.40;65.80;;;;;;5031742;28;20045;-66
2023/11/20 02:29:30;;;;;;;8.07;3.22;;;22.30;65.90;;;;;;5032836;28;20506;-65
2023/11/20 02:31:58;;;;;;;9.65;3.00;;;22.20;66.10;;;;;;5031159;28;20038;-65
2023/11/20 02:34:25;;;;;;;6.20;2.40;;;22.10;66.30;;;;;;5030844;28;20050;-62
2023/11/20 02:36:52;;;;;;;6.18;2.42;;;22.10;66.50;;;;;;5031013;28;20050;-63
2023/11/20 02:39:27;;;;;;;10.85;2.13;;;22.10;66.60;;;;;;5080891;27;20412;-67
2023/11/20 02:41:54;;;;;;;6.68;2.17;;;22.00;67.00;;;;;;5066578;28;20102;-67
2023/11/20 02:44:20;;;;;;;4.60;2.63;;;21.90;67.60;;;;;;5067190;28;20042;-66
2023/11/20 02:46:49;;;;;;;6.43;2.53;;;21.90;68.00;;;;;;5067640;28;20127;-66
2023/11/20 02:49:16;;;;;;;5.00;2.30;;;21.90;68.30;;;;;;5065443;28;20099;-67
2023/11/20 02:51:42;;;;;;;5.00;2.40;;;21.80;68.80;;;;;;5067180;28;20064;-66
2023/11/20 02:54:11;;;;;;;4.88;2.17;;;21.80;68.90;;;;;;5067221;28;20072;-67
2023/11/20 02:56:40;;;;;;;6.18;2.22;;;21.70;69.10;;;;;;5067406;28;20049;-66
2023/11/20 02:59:10;;;;;;;7.03;2.10;;;21.70;69.30;;;;;;5065293;28;20066;-67
2023/11/20 03:01:36;;;;;;;6.13;2.95;;;21.60;69.60;;;;;;5049337;28;20447;-66
2023/11/20 03:04:04;;;;;;;5.72;2.65;;;21.60;69.70;;;;;;5067072;28;20045;-68
2023/11/20 03:06:31;;;;;;;6.82;2.60;;;21.60;70.10;;;;;;5066083;28;20129;-68
2023/11/20 03:08:57;;;;;;;5.13;1.77;;;21.50;70.30;;;;;;5066842;28;20049;-66
2023/11/20 03:11:24;;;;;;;5.72;1.88;;;21.50;70.50;;;;;;5065198;28;20040;-66
2023/11/20 03:13:50;;;;;;;5.95;1.83;;;21.50;70.80;;;;;;5062390;28;20052;-66
2023/11/20 03:16:17;;;;;;;4.43;1.88;;;21.40;71.80;;;;;;5066835;28;20045;-67
2023/11/20 03:18:45;;;;;;;7.20;1.63;;;21.40;71.20;;;;;;5064907;28;20153;-67
2023/11/20 03:21:11;;;;;;;6.65;1.80;;;21.40;71.50;;;;;;5066759;28;20053;-69
2023/11/20 03:23:38;;;;;;;3.72;1.35;;;21.40;71.30;;;;;;5065266;28;20058;-67
2023/11/20 03:26:04;;;;;;;4.40;1.50;;;21.30;71.50;;;;;;5066875;28;20084;-69
2023/11/20 03:28:31;;;;;;;7.80;1.48;;;21.30;71.30;;;;;;5064758;28;20051;-68
2023/11/20 03:30:57;;;;;;;3.47;1.48;;;21.30;71.10;;;;;;5066534;28;20415;-65
2023/11/20 03:33:24;;;;;;;3.53;1.30;;;21.30;71.30;;;;;;5064659;28;20061;-66
2023/11/20 03:35:50;;;;;;;6.43;1.25;;;21.30;71.20;;;;;;5046678;28;20046;-66
2023/11/20 03:38:17;;;;;;;6.55;1.50;;;21.20;71.30;;;;;;5061488;28;20078;-68
2023/11/20 03:40:44;;;;;;;3.20;1.50;;;21.20;72.20;;;;;;5066418;28;20508;-68
2023/11/20 03:43:10;;;;;;;6.00;1.60;;;21.20;71.40;;;;;;5066303;28;20047;-68
2023/11/20 03:45:37;;;;;;;6.13;1.58;;;21.20;71.70;;;;;;5064441;28;20526;-69
2023/11/20 03:48:03;;;;;;;3.63;1.70;;;21.20;71.70;;;;;;5065925;28;20585;-67
2023/11/20 03:50:30;;;;;;;6.53;1.75;;;21.20;71.70;;;;;;5060223;28;20042;-67
2023/11/20 03:52:56;;;;;;;3.90;2.00;;;21.20;71.60;;;;;;5052888;28;20058;-66
2023/11/20 03:55:23;;;;;;;6.55;1.80;;;21.10;71.80;;;;;;5051262;28;20051;-65
2023/11/20 03:57:49;;;;;;;5.60;1.45;;;21.10;72.70;;;;;;5055238;28;20061;-67
2023/11/20 04:00:16;;;;;;;4.43;1.40;;;21.10;71.80;;;;;;5051288;28;20688;-69
2023/11/20 04:02:42;;;;;;;6.72;1.75;;;21.10;72.10;;;;;;5052939;28;20058;-65
2023/11/20 04:05:09;;;;;;;6.57;2.00;;;21.00;71.90;;;;;;5052854;28;20046;-66
2023/11/20 04:07:36;;;;;;;2.60;1.58;;;21.00;72.20;;;;;;5052900;28;20065;-65
2023/11/20 04:10:04;;;;;;;7.60;1.80;;;21.00;72.30;;;;;;5051237;28;20448;-67
2023/11/20 04:12:31;;;;;;;7.93;2.30;;;21.00;72.60;;;;;;5052924;28;20054;-67
2023/11/20 04:14:57;;;;;;;5.50;2.85;;;20.90;72.60;;;;;;5051055;28;20505;-68
2023/11/20 04:17:24;;;;;;;7.93;3.00;;;20.90;72.80;;;;;;5052124;28;20090;-66
2023/11/20 04:19:50;;;;;;;6.35;3.30;;;20.90;73.20;;;;;;5052717;28;20415;-68
2023/11/20 04:22:17;;;;;;;7.40;3.75;;;20.80;73.40;;;;;;5050955;28;20080;-68
2023/11/20 04:24:43;;;;;;;9.98;4.65;;;20.80;73.70;;;;;;5052451;28;20092;-67
2023/11/20 04:27:09;;;;;;;11.25;4.75;;;20.70;73.90;;;;;;5050892;28;20101;-67
2023/11/20 04:29:37;;;;;;;10.30;4.85;;;20.70;74.20;;;;;;5052609;28;20057;-67
2023/11/20 04:32:04;;;;;;;9.18;3.90;;;20.60;75.10;;;;;;5052398;28;20393;-68
2023/11/20 04:34:31;;;;;;;8.80;3.45;;;20.60;75.80;;;;;;5051881;28;20048;-67
2023/11/20 04:36:57;;;;;;;8.48;2.33;;;20.60;75.90;;;;;;5052303;28;20399;-66
2023/11/20 04:39:24;;;;;;;4.03;2.28;;;20.50;76.30;;;;;;5051934;28;20128;-67
2023/11/20 04:41:50;;;;;;;6.32;1.65;;;20.50;76.40;;;;;;5052383;28;20074;-67
2023/11/20 04:44:17;;;;;;;7.22;2.15;;;20.40;76.80;;;;;;5050744;28;20056;-66
2023/11/20 04:46:43;;;;;;;7.35;1.77;;;20.40;76.90;;;;;;5052301;28;20508;-69
2023/11/20 04:49:10;;;;;;;6.82;2.08;;;20.30;76.90;;;;;;5051953;28;20049;-67
2023/11/20 04:51:36;;;;;;;6.68;1.90;;;20.20;77.30;;;;;;5051049;28;20051;-64
2023/11/20 04:54:03;;;;;;;8.07;2.10;;;20.20;76.50;;;;;;5050074;28;20108;-67
2023/11/20 04:56:31;;;;;;;5.65;2.10;;;20.20;76.00;;;;;;5051933;28;20370;-67
2023/11/20 04:58:57;;;;;;;6.35;1.90;;;20.20;75.60;;;;;;5049985;28;20096;-66
2023/11/20 05:01:24;;;;;;;6.22;2.63;;;20.10;75.40;;;;;;5050782;28;20045;-68
2023/11/20 05:03:51;;;;;;;7.28;3.42;;;20.10;75.30;;;;;;5052023;28;20103;-66
2023/11/20 05:06:18;;;;;;;14.50;6.82;;;20.10;75.30;;;;;;5050033;28;20532;-66
2023/11/20 05:08:46;;;;;;;5.05;2.22;;;20.00;75.40;;;;;;5051829;28;20566;-67
2023/11/20 05:11:13;;;;;;;7.25;2.10;;;20.00;75.00;;;;;;5051659;28;20142;-68
2023/11/20 05:13:39;;;;;;;11.38;1.70;;;20.00;74.80;;;;;;5049766;28;20050;-65
2023/11/20 05:16:07;;;;;;;7.13;1.73;;;20.10;74.80;;;;;;5051716;28;20041;-67
2023/11/20 05:18:33;;;;;;;8.07;2.05;;;20.10;74.70;;;;;;5051386;28;20113;-68
2023/11/20 05:21:00;;;;;;;8.07;1.98;;;20.10;74.70;;;;;;5049535;28;20043;-64
2023/11/20 05:23:26;;;;;;;11.77;1.83;;;20.10;74.60;;;;;;5049389;28;20053;-67
2023/11/20 05:25:54;;;;;;;11.65;1.98;;;20.10;74.60;;;;;;5049479;28;20105;-69
2023/11/20 05:28:21;;;;;;;9.38;1.80;;;20.10;74.90;;;;;;5051152;28;20058;-68
2023/11/20 05:30:48;;;;;;;11.07;1.80;;;20.10;74.60;;;;;;5051183;28;20049;-66
2023/11/20 05:33:15;;;;;;;10.75;1.95;;;20.10;74.70;;;;;;5050470;28;20058;-67
2023/11/20 05:35:41;;;;;;;10.45;1.65;;;20.10;74.50;;;;;;5055920;28;20043;-69
2023/11/20 05:38:08;;;;;;;8.05;1.63;;;20.10;74.50;;;;;;5051077;28;20078;-66
2023/11/20 05:40:34;;;;;;;7.38;1.60;;;20.10;74.60;;;;;;5049072;28;20141;-67
2023/11/20 05:43:01;;;;;;;11.30;1.98;;;20.00;74.30;;;;;;5050954;28;20053;-68
2023/11/20 05:45:28;;;;;;;9.95;2.00;;;20.00;73.70;;;;;;5049981;28;20538;-68
2023/11/20 05:47:55;;;;;;;10.45;1.67;;;20.00;73.60;;;;;;5048881;28;20049;-69
2023/11/20 05:50:21;;;;;;;10.48;1.85;;;19.90;73.00;;;;;;5050706;28;20136;-67
2023/11/20 05:52:48;;;;;;;8.77;1.95;;;19.90;72.90;;;;;;5049552;28;20058;-67
2023/11/20 05:55:14;;;;;;;9.27;1.55;;;19.90;72.90;;;;;;5050456;28;20047;-67
2023/11/20 05:57:41;;;;;;;6.53;1.70;;;19.90;72.20;;;;;;5050660;28;20061;-68
2023/11/20 06:00:10;;;;;;;12.57;2.15;;;19.90;71.90;;;;;;5050368;28;20150;-66
2023/11/20 06:02:37;;;;;;;16.15;2.00;;;19.90;71.40;;;;;;5048857;28;20046;-66
2023/11/20 06:05:03;;;;;;;37.55;2.72;;;19.80;70.40;;;;;;5050494;28;20050;-68
2023/11/20 06:07:30;;;;;;;20.25;2.05;;;19.80;70.30;;;;;;5050411;28;20077;-68
2023/11/20 06:09:57;;;;;;;12.52;2.55;;;19.80;70.20;;;;;;5032567;28;20066;-69
2023/11/20 06:12:23;;;;;;;15.55;3.63;;;19.70;69.70;;;;;;5048323;28;20086;-70
2023/11/20 06:14:49;;;;;;;20.98;2.88;;;19.80;68.90;;;;;;5049987;28;20051;-67
2023/11/20 06:17:17;;;;;;;14.32;3.03;;;19.70;69.20;;;;;;5050219;28;20501;-68
2023/11/20 06:19:44;;;;;;;19.58;3.50;;;19.70;69.80;;;;;;5048528;28;20054;-68
2023/11/20 06:22:11;;;;;;;25.50;3.47;;;19.70;69.40;;;;;;5050238;28;20087;-70
2023/11/20 06:24:37;;;;;;;8.10;2.20;;;19.60;68.90;;;;;;5048603;28;20047;-68
2023/11/20 06:27:04;;;;;;;13.38;2.30;;;19.60;68.10;;;;;;5050033;28;20119;-68
2023/11/20 06:29:30;;;;;;;19.17;1.98;;;19.60;68.40;;;;;;5049829;28;20050;-70
2023/11/20 06:31:57;;;;;;;13.63;2.22;;;19.50;67.70;;;;;;5050266;28;20051;-67
2023/11/20 06:34:23;;;;;;;14.82;2.63;;;19.50;67.60;;;;;;5048967;28;20054;-67
2023/11/20 06:36:50;;;;;;;15.15;2.30;;;19.50;68.20;;;;;;5050318;28;20065;-69
2023/11/20 06:39:16;;;;;;;8.93;3.17;;;19.50;68.70;;;;;;5049634;28;20166;-67
2023/11/20 06:41:43;;;;;;;11.98;4.32;;;19.40;69.30;;;;;;5049200;28;20450;-67
2023/11/20 06:44:09;;;;;;;65.03;49.35;;;19.30;70.10;;;;;;5049688;28;20047;-67
2023/11/20 06:46:36;;;;;;;35.35;21.40;;;19.30;71.50;;;;;;5048315;28;20375;-68
2023/11/20 06:49:02;;;;;;;32.78;19.55;;;19.20;72.20;;;;;;5049959;28;20493;-66
2023/11/20 06:51:29;;;;;;;14.43;3.72;;;19.10;73.40;;;;;;5050269;28;20429;-68
2023/11/20 06:53:56;;;;;;;9.98;3.40;;;19.10;74.40;;;;;;5048952;28;20567;-68
2023/11/20 06:56:22;;;;;;;12.65;3.85;;;19.00;75.20;;;;;;5049908;28;20060;-68
2023/11/20 06:58:49;;;;;;;11.63;3.80;;;18.80;76.00;;;;;;5049718;28;20085;-66
2023/11/20 07:01:17;;;;;;;10.35;3.67;;;18.70;76.30;;;;;;5048019;28;20056;-66
2023/11/20 07:03:44;;;;;;;8.25;3.03;;;18.60;76.60;;;;;;5049924;28;20047;-67
2023/11/20 07:06:17;;;;;;;11.45;3.20;;;18.60;76.90;;;;;;5049849;28;20068;-67
2023/11/20 07:08:43;;;;;;;11.43;2.90;;;18.40;77.20;;;;;;5048722;28;20106;-67
2023/11/20 07:11:10;;;;;;;14.52;3.08;;;18.40;77.20;;;;;;5049949;28;20044;-68
2023/11/20 07:13:37;;;;;;;15.70;3.35;;;18.40;77.50;;;;;;5049745;28;20079;-67
2023/11/20 07:16:03;;;;;;;6.32;2.40;;;18.30;77.30;;;;;;5048165;28;20058;-67
2023/11/20 07:18:30;;;;;;;14.85;2.78;;;18.20;77.60;;;;;;5049680;28;20096;-67
2023/11/20 07:20:56;;;;;;;12.40;2.33;;;18.20;78.40;;;;;;5049787;28;20185;-69
2023/11/20 07:23:23;;;;;;;11.45;3.50;;;18.10;77.60;;;;;;5048964;28;20461;-69
2023/11/20 07:25:49;;;;;;;15.98;3.90;;;18.10;77.20;;;;;;5051809;28;20042;-68
2023/11/20 07:28:16;;;;;;;18.17;3.75;;;18.00;76.40;;;;;;5053412;28;20366;-72
2023/11/20 07:30:43;;;;;;;8.27;2.88;;;17.90;75.50;;;;;;5052610;28;20438;-68
2023/11/20 07:33:10;;;;;;;13.90;3.60;;;17.90;73.60;;;;;;5053593;28;20411;-69
2023/11/20 07:35:37;;;;;;;15.05;2.90;;;17.90;74.60;;;;;;5053259;28;20397;-67
2023/11/20 07:38:03;;;;;;;18.00;3.45;;;17.90;75.80;;;;;;5051943;28;20080;-68
2023/11/20 07:40:30;;;;;;;15.20;3.17;;;17.70;76.60;;;;;;5053112;28;20409;-67
2023/11/20 07:42:56;;;;;;;24.40;6.13;;;17.70;77.40;;;;;;5053197;28;20057;-65
2023/11/20 07:45:24;;;;;;;18.05;3.70;;;17.70;78.10;;;;;;5052249;28;20433;-67
2023/11/20 07:47:50;;;;;;;17.95;3.92;;;17.70;78.40;;;;;;5053135;28;20054;-68
2023/11/20 07:50:17;;;;;;;16.05;4.22;;;17.60;78.40;;;;;;5052919;28;20090;-67
2023/11/20 07:52:43;;;;;;;17.23;5.65;;;17.60;77.00;;;;;;5053299;28;20061;-68
2023/11/20 07:55:11;;;;;;;21.95;8.48;;;17.50;76.70;;;;;;5050957;28;20401;-68
2023/11/20 07:57:38;;;;;;;21.52;7.47;;;17.40;76.00;;;;;;5052962;28;20163;-68
2023/11/20 08:00:05;;;;;;;28.13;4.20;;;17.40;74.60;;;;;;5051409;28;20064;-68
2023/11/20 08:02:32;;;;;;;24.40;3.28;;;17.40;69.10;;;;;;5052804;28;20065;-67
2023/11/20 08:04:58;;;;;;;24.83;2.72;;;17.40;63.80;;;;;;5051177;28;20063;-66
2023/11/20 08:07:25;;;;;;;25.80;2.80;;;17.40;62.30;;;;;;5053068;28;20136;-67
2023/11/20 08:09:51;;;;;;;15.32;2.20;;;17.50;59.70;;;;;;5052808;28;20098;-69
2023/11/20 08:12:18;;;;;;;18.83;2.72;;;17.50;58.80;;;;;;5052631;28;20140;-68
2023/11/20 08:14:45;;;;;;;17.23;2.60;;;17.50;58.10;;;;;;5050967;28;20051;-67
2023/11/20 08:17:11;;;;;;;31.75;2.92;;;17.50;57.00;;;;;;5053074;28;20076;-68
2023/11/20 08:19:38;;;;;;;20.63;2.58;;;17.50;55.80;;;;;;5051784;28;20061;-70
2023/11/20 08:22:04;;;;;;;15.27;2.35;;;17.60;54.70;;;;;;5052570;28;20052;-69
2023/11/20 08:24:31;;;;;;;21.13;2.47;;;17.60;54.50;;;;;;5052298;28;20175;-67
2023/11/20 08:26:58;;;;;;;22.80;3.22;;;17.70;53.80;;;;;;5050916;28;20453;-67
2023/11/20 08:29:26;;;;;;;29.20;3.03;;;17.70;53.80;;;;;;5052372;28;20061;-68
2023/11/20 08:31:52;;;;;;;23.13;2.65;;;17.80;52.70;;;;;;5050679;28;20117;-68
2023/11/20 08:34:19;;;;;;;33.00;3.58;;;17.80;52.60;;;;;;5052306;28;20412;-66
2023/11/20 08:36:46;;;;;;;21.80;4.07;;;17.70;53.00;;;;;;5052278;28;20380;-68
2023/11/20 08:39:14;;;;;;;29.98;3.83;;;17.70;53.50;;;;;;5051604;28;20455;-66
2023/11/20 08:41:41;;;;;;;29.15;3.38;;;17.70;53.70;;;;;;5051289;28;20052;-68
2023/11/20 08:44:08;;;;;;;28.63;3.28;;;17.60;54.00;;;;;;5052181;28;20415;-67
2023/11/20 08:46:35;;;;;;;27.05;3.05;;;17.50;53.80;;;;;;5052249;28;20056;-67
2023/11/20 08:49:02;;;;;;;21.58;3.13;;;17.50;54.50;;;;;;5047725;28;20065;-67
2023/11/20 08:51:30;;;;;;;24.80;2.92;;;17.50;54.50;;;;;;5052104;28;20420;-67
2023/11/20 08:53:57;;;;;;;34.40;3.33;;;17.40;54.60;;;;;;5050901;28;20122;-67
2023/11/20 08:56:23;;;;;;;27.17;3.75;;;17.50;55.20;;;;;;5051151;28;20567;-67
2023/11/20 08:58:50;;;;;;;25.42;2.88;;;17.40;54.80;;;;;;5050165;28;20123;-69
2023/11/20 09:01:16;;;;;;;24.15;3.00;;;17.40;54.70;;;;;;5067245;28;20053;-68
2023/11/20 09:03:43;;;;;;;23.70;2.90;;;17.40;54.60;;;;;;5050035;28;20411;-67
2023/11/20 09:06:09;;;;;;;28.20;3.17;;;17.30;54.70;;;;;;5051939;28;20064;-68
2023/11/20 09:08:36;;;;;;;21.60;3.00;;;17.30;55.00;;;;;;5050587;28;20243;-69
2023/11/20 09:11:02;;;;;;;25.75;3.55;;;17.30;55.10;;;;;;5056520;28;20064;-67
2023/11/20 09:13:29;;;;;;;29.27;2.75;;;17.30;55.80;;;;;;5056097;28;20064;-68
2023/11/20 09:15:55;;;;;;;27.95;3.38;;;17.20;54.70;;;;;;5051685;28;20412;-68
2023/11/20 09:18:22;;;;;;;20.42;3.13;;;17.20;53.90;;;;;;5051622;28;20104;-66
2023/11/20 09:20:48;;;;;;;36.17;3.75;;;17.30;51.40;;;;;;5051654;28;20052;-67
2023/11/20 09:23:15;;;;;;;22.88;3.13;;;17.40;50.40;;;;;;5049752;28;20056;-68
2023/11/20 09:25:42;;;;;;;32.50;3.20;;;17.50;50.40;;;;;;5051015;28;20059;-67
2023/11/20 09:28:08;;;;;;;36.20;3.50;;;17.60;51.60;;;;;;5051083;28;20056;-68
2023/11/20 09:30:35;;;;;;;33.58;3.75;;;17.70;52.30;;;;;;5051341;28;20131;-66
2023/11/20 09:33:01;;;;;;;44.75;18.67;;;17.70;52.00;;;;;;5049295;28;20061;-65
2023/11/20 09:35:28;;;;;;;47.28;18.92;;;17.80;51.90;;;;;;5051066;28;20084;-68
2023/11/20 09:37:54;;;;;;;24.05;2.80;;;17.90;51.40;;;;;;5049469;28;20081;-66
2023/11/20 09:40:22;;;;;;;23.42;2.83;;;17.90;51.50;;;;;;5049907;28;20052;-66
2023/11/20 09:42:49;;;;;;;23.35;2.92;;;18.00;51.40;;;;;;5049420;28;20059;-66
2023/11/20 09:45:29;;;;;;;15.05;2.40;;;18.00;51.70;;;;;;5050807;28;20449;-68
2023/11/20 09:47:57;;;;;;;26.95;2.90;;;18.00;52.20;;;;;;5048807;28;20087;-65
2023/11/20 09:50:28;;;;;;;24.20;3.00;;;18.00;53.50;;;;;;5051096;28;20061;-66
2023/11/20 09:52:59;;;;;;;22.55;2.67;;;18.00;53.40;;;;;;5049968;28;20051;-66
2023/11/20 09:55:26;;;;;;;27.55;2.92;;;18.00;54.40;;;;;;5050960;28;20129;-66
2023/11/20 09:57:53;;;;;;;32.47;3.03;;;17.90;54.70;;;;;;5050992;28;20147;-66
2023/11/20 10:00:22;;;;;;;24.35;2.90;;;18.00;54.50;;;;;;5049733;28;20061;-66
2023/11/20 10:02:49;;;;;;;28.95;3.05;;;17.90;55.00;;;;;;5050558;28;20053;-66
2023/11/20 10:05:24;;;;;;;20.60;2.42;;;17.90;56.00;;;;;;5050711;28;20053;-66
2023/11/20 10:07:53;;;;;;;35.75;3.45;;;17.80;57.00;;;;;;5049635;28;20059;-67
2023/11/20 10:10:19;;;;;;;28.90;3.17;;;17.60;57.50;;;;;;5050358;28;20084;-66
2023/11/20 10:12:47;;;;;;;29.95;3.10;;;17.60;58.10;;;;;;5050870;28;20053;-67
2023/11/20 10:15:15;;;;;;;23.08;2.50;;;17.50;58.30;;;;;;5048447;28;20057;-67
2023/11/20 10:17:41;;;;;;;23.58;2.40;;;17.40;58.70;;;;;;5049745;28;20069;-68
2023/11/20 10:20:09;;;;;;;30.67;2.90;;;17.30;59.10;;;;;;5050215;28;20496;-68
2023/11/20 10:22:39;;;;;;;31.45;3.60;;;17.30;59.60;;;;;;5049717;28;20135;-67
2023/11/20 10:25:06;;;;;;;26.90;2.97;;;17.20;59.50;;;;;;5050159;28;20083;-65
2023/11/20 10:27:33;;;;;;;34.03;2.58;;;17.20;58.90;;;;;;5050336;28;20100;-65
2023/11/20 10:30:00;;;;;;;23.58;2.90;;;17.20;58.90;;;;;;5050191;28;20144;-68
2023/11/20 10:32:27;;;;;;;23.02;2.70;;;17.00;59.10;;;;;;5048234;28;20050;-65
2023/11/20 10:35:13;;;;;;;23.65;3.00;;;16.90;59.00;;;;;;5050091;28;20583;-66
2023/11/20 10:37:59;;;;;;;24.20;2.83;;;17.00;58.80;;;;;;5049875;28;20083;-68
2023/11/20 10:40:29;;;;;;;23.52;2.53;;;16.90;57.50;;;;;;5049157;28;20083;-68
2023/11/20 10:42:57;;;;;;;21.30;2.22;;;17.00;57.40;;;;;;5050627;28;20056;-68
2023/11/20 10:45:24;;;;;;;18.90;2.20;;;17.00;57.10;;;;;;5050114;28;20053;-68
2023/11/20 10:47:51;;;;;;;23.15;2.92;;;17.00;57.70;;;;;;5048343;28;20057;-66
2023/11/20 10:50:18;;;;;;;30.00;2.40;;;17.00;58.20;;;;;;5049668;28;20423;-67
2023/11/20 10:52:47;;;;;;;20.40;3.05;;;16.90;59.00;;;;;;5050225;28;20132;-67
2023/11/20 10:55:16;;;;;;;26.00;3.25;;;16.90;59.90;;;;;;5047963;28;20150;-66
2023/11/20 10:57:47;;;;;;;30.85;3.10;;;16.80;60.00;;;;;;5049981;28;20461;-66
2023/11/20 11:00:15;;;;;;;13.23;3.20;;;16.80;61.80;;;;;;5050149;28;20195;-66
2023/11/20 11:02:45;;;;;;;25.08;3.75;;;16.70;61.40;;;;;;5053787;28;20642;-67
2023/11/20 11:05:12;;;;;;;19.52;2.65;;;16.60;61.20;;;;;;5051783;28;20053;-67
2023/11/20 11:07:40;;;;;;;20.25;3.40;;;16.60;61.70;;;;;;5052138;28;20064;-66
2023/11/20 11:10:11;;;;;;;21.38;3.00;;;16.50;62.00;;;;;;5053832;28;20405;-67
2023/11/20 11:12:42;;;;;;;19.88;2.15;;;16.50;60.10;;;;;;5054043;28;20065;-68
2023/11/20 11:15:13;;;;;;;18.55;2.20;;;16.60;57.80;;;;;;5052731;28;20068;-67
2023/11/20 11:17:49;;;;;;;24.83;2.42;;;16.70;53.70;;;;;;5053635;28;20092;-66
2023/11/20 11:20:22;;;;;;;21.60;1.88;;;16.90;52.00;;;;;;5053516;28;20171;-66
2023/11/20 11:22:58;;;;;;;20.38;1.90;;;17.10;51.20;;;;;;5035760;28;20100;-65
2023/11/20 11:25:27;;;;;;;22.45;2.35;;;17.20;51.20;;;;;;5051733;28;20064;-66
2023/11/20 11:27:57;;;;;;;25.50;2.83;;;17.20;50.10;;;;;;5053474;28;20069;-64
2023/11/20 11:30:25;;;;;;;21.15;1.80;;;17.30;49.80;;;;;;5053700;28;20088;-65
2023/11/20 11:33:16;;;;;;;10.40;1.70;;;17.40;50.00;;;;;;5051549;28;20106;-67
2023/11/20 11:36:02;;;;;;;13.98;1.73;;;17.50;49.40;;;;;;5052383;28;20411;-65
2023/11/20 11:39:00;;;;;;;11.02;1.65;;;17.50;49.40;;;;;;5051466;28;20221;-66
2023/11/20 11:41:39;;;;;;;12.43;1.40;;;17.50;48.60;;;;;;5053469;28;20119;-67
2023/11/20 11:44:36;;;;;;;10.68;1.52;;;17.50;48.80;;;;;;5045127;28;20053;-68
2023/11/20 11:47:13;;;;;;;17.27;1.85;;;17.50;48.60;;;;;;5043098;28;20058;-67
2023/11/20 11:49:44;;;;;;;;;;;17.60;48.50;;;;;;5053625;28;20127;-67
2023/11/20 11:52:11;;;;;;;14.52;1.98;;;17.50;48.80;;;;;;5051436;28;20347;-68
2023/11/20 11:54:37;;;;;;;17.05;1.67;;;17.50;48.80;;;;;;5052778;28;20068;-67
2023/11/20 11:57:18;;;;;;;10.88;1.60;;;17.50;48.60;;;;;;5052997;28;20076;-68
2023/11/20 11:59:46;;;;;;;14.20;1.75;;;17.50;48.90;;;;;;5052670;28;20049;-68
2023/11/20 12:02:22;;;;;;;18.27;1.60;;;17.40;49.10;;;;;;5052313;28;20091;-66
2023/11/20 12:05:01;;;;;;;12.68;1.48;;;17.40;48.90;;;;;;5053809;28;20114;-68
2023/11/20 12:07:45;;;;;;;19.95;1.73;;;17.40;49.20;;;;;;5052670;28;20559;-67
2023/11/20 12:10:12;;;;;;;16.33;2.10;;;17.40;48.60;;;;;;5051805;28;20087;-67
2023/11/20 12:13:09;;;;;;;17.92;2.17;;;17.40;48.30;;;;;;5053316;28;20080;-65
2023/11/20 12:15:42;;;;;;;10.70;1.48;;;17.40;47.70;;;;;;5044768;28;20065;-65
2023/11/20 12:18:11;;;;;;;17.90;2.53;;;17.40;48.00;;;;;;5034595;28;20456;-64
2023/11/20 12:20:42;;;;;;;30.00;2.45;;;17.40;47.70;;;;;;5052656;28;20057;-67
2023/11/20 12:23:19;;;;;;;26.13;2.00;;;17.40;47.40;;;;;;5051527;28;20268;-65
2023/11/20 12:25:47;;;;;;;14.32;1.80;;;17.40;47.00;;;;;;5050397;28;20063;-65
2023/11/20 12:28:13;;;;;;;14.48;1.83;;;17.30;47.40;;;;;;5052475;28;20115;-63
2023/11/20 12:30:40;;;;;;;19.10;1.88;;;17.30;48.10;;;;;;5052477;28;20507;-66
2023/11/20 12:33:10;;;;;;;22.40;2.70;;;17.20;47.20;;;;;;5032826;28;20075;-65
2023/11/20 12:35:37;;;;;;;14.57;2.00;;;17.10;46.20;;;;;;5052181;28;20053;-65
2023/11/20 12:38:05;;;;;;;27.10;1.88;;;17.20;46.00;;;;;;5052128;28;20547;-66
2023/11/20 12:40:32;;;;;;;30.10;2.72;;;17.10;46.00;;;;;;5052183;28;20065;-66
2023/11/20 12:42:59;;;;;;;19.17;1.75;;;17.10;45.70;;;;;;5051328;28;20049;-66
2023/11/20 12:45:26;;;;;;;16.50;1.70;;;17.10;45.20;;;;;;5067316;28;20099;-65
2023/11/20 12:47:52;;;;;;;17.77;2.35;;;17.20;45.00;;;;;;5050693;28;20071;-66